createdAt,value
2024-03-26T07:55:49.273Z,937.70
2024-03-26T07:56:41.475Z,937.71
2024-03-26T07:57:41.494Z,937.71
2024-03-26T07:58:41.434Z,937.63
2024-03-26T07:59:41.421Z,937.69
2024-03-26T08:01:41.426Z,937.61
2024-03-26T08:02:41.393Z,937.64
2024-03-26T08:03:41.393Z,937.64
2024-03-26T08:04:42.867Z,937.57
2024-03-26T08:06:41.356Z,937.59
2024-03-26T08:07:41.334Z,937.62
2024-03-26T08:08:44.325Z,937.56
2024-03-26T08:09:41.321Z,937.57
2024-03-26T08:11:41.333Z,937.49
2024-03-26T08:12:41.369Z,937.47
2024-03-26T08:13:41.309Z,937.40
2024-03-26T08:14:41.278Z,937.39
2024-03-26T08:15:41.354Z,937.37
2024-03-26T08:16:41.250Z,937.37
2024-03-26T08:17:41.227Z,937.41
2024-03-26T08:18:41.220Z,937.39
2024-03-26T08:19:41.240Z,937.39
2024-03-26T08:21:41.177Z,937.34
2024-03-26T08:22:41.222Z,937.33
2024-03-26T08:23:44.169Z,937.31
2024-03-26T08:24:41.170Z,937.35
2024-03-26T08:25:41.154Z,937.32
2024-03-26T08:26:41.170Z,937.34
2024-03-26T08:27:41.160Z,937.33
2024-03-26T08:29:41.106Z,937.32
2024-03-26T08:30:41.091Z,937.30
2024-03-26T08:31:41.081Z,937.27
2024-03-26T08:32:41.113Z,937.23
2024-03-26T08:33:41.098Z,937.20
2024-03-26T08:34:41.046Z,937.23
2024-03-26T08:35:41.098Z,937.21
2024-03-26T08:36:41.036Z,937.29
2024-03-26T08:37:41.035Z,937.29
2024-03-26T08:38:44.068Z,937.31
2024-03-26T08:39:41.012Z,937.30
2024-03-26T08:40:41.004Z,937.31
2024-03-26T08:41:41.005Z,937.28
2024-03-26T08:42:40.983Z,937.30
2024-03-26T08:43:40.974Z,937.33
2024-03-26T08:44:40.944Z,937.37
2024-03-26T08:45:40.943Z,937.33
2024-03-26T08:46:40.932Z,937.34
2024-03-26T08:47:40.915Z,937.34
2024-03-26T08:48:40.911Z,937.30
2024-03-26T08:49:40.916Z,937.29
2024-03-26T08:50:40.894Z,937.25
2024-03-26T08:51:40.865Z,937.27
2024-03-26T08:52:40.863Z,937.15
2024-03-26T08:53:43.850Z,937.10
2024-03-26T08:54:40.849Z,937.12
2024-03-26T08:55:40.845Z,937.14
2024-03-26T08:56:40.815Z,937.12
2024-03-26T08:57:40.821Z,937.11
2024-03-26T08:59:40.803Z,937.08
2024-03-26T09:00:40.776Z,937.01
2024-03-26T09:02:40.770Z,936.95
2024-03-26T09:03:40.749Z,936.98
2024-03-26T09:04:40.731Z,936.97
2024-03-26T09:05:48.338Z,936.97
2024-03-26T09:06:40.724Z,936.91
2024-03-26T09:07:40.711Z,936.95
2024-03-26T09:08:43.706Z,936.90
2024-03-26T09:09:40.719Z,936.90
2024-03-26T09:10:40.743Z,936.89
2024-03-26T09:11:40.664Z,936.88
2024-03-26T09:12:40.683Z,936.91
2024-03-26T09:13:40.645Z,936.91
2024-03-26T09:14:40.682Z,936.85
2024-03-26T09:15:40.640Z,936.80
2024-03-26T09:17:40.606Z,936.73
2024-03-26T09:19:40.581Z,936.72
2024-03-26T09:20:40.564Z,936.69
2024-03-26T09:21:40.550Z,936.65
2024-03-26T09:22:40.571Z,936.64
2024-03-26T09:23:43.578Z,936.68
2024-03-26T09:24:49.436Z,936.66
2024-03-26T09:25:40.524Z,936.70
2024-03-26T09:26:40.511Z,936.65
2024-03-26T09:27:40.504Z,936.61
2024-03-26T09:29:40.486Z,936.61
2024-03-26T09:30:40.475Z,936.61
2024-03-26T09:31:40.460Z,936.64
2024-03-26T09:32:40.616Z,936.56
2024-03-26T09:33:40.423Z,936.58
2024-03-26T09:34:40.426Z,936.63
2024-03-26T09:35:40.423Z,936.62
2024-03-26T09:36:41.278Z,936.60
2024-03-26T09:37:40.405Z,936.59
2024-03-26T09:38:48.195Z,936.62
2024-03-26T09:39:40.365Z,936.60
2024-03-26T09:40:40.352Z,936.65
2024-03-26T09:41:40.351Z,936.62
2024-03-26T09:42:40.353Z,936.60
2024-03-26T09:43:40.347Z,936.61
2024-03-26T09:44:40.324Z,936.67
2024-03-26T09:45:41.307Z,936.64
2024-03-26T09:46:40.306Z,936.60
2024-03-26T09:47:40.288Z,936.63
2024-03-26T09:48:40.270Z,936.65
2024-03-26T09:50:40.252Z,936.61
2024-03-26T09:52:40.229Z,936.59
2024-03-26T09:53:43.223Z,936.66
2024-03-26T09:55:40.216Z,936.52
2024-03-26T09:56:40.176Z,936.60
2024-03-26T09:58:40.157Z,936.60
2024-03-26T09:59:40.170Z,936.53
2024-03-26T10:00:41.615Z,936.53
2024-03-26T10:02:40.119Z,936.46
2024-03-26T10:03:40.109Z,936.44
2024-03-26T10:05:40.109Z,936.41
2024-03-26T10:06:40.079Z,936.40
2024-03-26T10:08:43.163Z,936.42
2024-03-26T10:09:40.044Z,936.38
2024-03-26T10:10:47.543Z,936.37
2024-03-26T10:11:42.735Z,936.35
2024-03-26T10:12:40.017Z,936.32
2024-03-26T10:13:40.024Z,936.39
2024-03-26T10:15:39.983Z,936.36
2024-03-26T10:16:40.143Z,936.34
2024-03-26T10:17:39.999Z,936.34
2024-03-26T10:18:39.972Z,936.31
2024-03-26T10:20:39.933Z,936.27
2024-03-26T10:21:39.916Z,936.26
2024-03-26T10:22:39.916Z,936.28
2024-03-26T10:23:42.897Z,936.25
2024-03-26T10:24:39.888Z,936.26
2024-03-26T10:25:39.874Z,936.25
2024-03-26T10:26:39.863Z,936.25
2024-03-26T10:27:39.869Z,936.25
2024-03-26T10:28:39.851Z,936.29
2024-03-26T10:29:39.830Z,936.29
2024-03-26T10:31:39.828Z,936.31
2024-03-26T10:32:39.799Z,936.30
2024-03-26T10:33:39.794Z,936.30
2024-03-26T10:34:39.770Z,936.27
2024-03-26T10:35:39.766Z,936.30
2024-03-26T10:36:39.760Z,936.35
2024-03-26T10:37:39.744Z,936.39
2024-03-26T10:38:47.938Z,936.41
2024-03-26T10:40:39.726Z,936.38
2024-03-26T10:41:39.709Z,936.34
2024-03-26T10:42:39.863Z,936.38
2024-03-26T10:43:39.683Z,936.39
2024-03-26T10:44:39.669Z,936.44
2024-03-26T10:45:49.355Z,936.45
2024-03-26T10:46:40.653Z,936.43
2024-03-26T10:47:39.712Z,936.39
2024-03-26T10:48:44.415Z,936.34
2024-03-26T10:49:40.617Z,936.30
2024-03-26T10:50:39.611Z,936.23
2024-03-26T10:51:39.618Z,936.25
2024-03-26T10:52:39.580Z,936.21
2024-03-26T10:53:42.742Z,936.23
2024-03-26T10:54:39.568Z,936.21
2024-03-26T10:56:39.542Z,936.17
2024-03-26T10:57:39.531Z,936.17
2024-03-26T10:58:39.524Z,936.12
2024-03-26T10:59:39.522Z,936.14
2024-03-26T11:01:39.492Z,936.12
2024-03-26T11:02:39.516Z,936.14
2024-03-26T11:03:39.507Z,936.05
2024-03-26T11:04:39.489Z,936.03
2024-03-26T11:06:39.465Z,936.00
2024-03-26T11:07:39.436Z,935.98
2024-03-26T11:08:42.413Z,935.98
2024-03-26T11:09:39.412Z,935.97
2024-03-26T11:11:39.392Z,935.98
2024-03-26T11:12:39.373Z,935.95
2024-03-26T11:14:39.370Z,935.94
2024-03-26T11:15:39.516Z,935.95
2024-03-26T11:16:39.338Z,935.92
2024-03-26T11:17:39.346Z,935.90
2024-03-26T11:19:39.298Z,935.85
2024-03-26T11:20:39.301Z,935.82
2024-03-26T11:21:39.277Z,935.87
2024-03-26T11:22:39.272Z,935.81
2024-03-26T11:23:42.252Z,935.79
2024-03-26T11:24:39.250Z,935.81
2024-03-26T11:25:39.245Z,935.78
2024-03-26T11:26:39.243Z,935.83
2024-03-26T11:27:39.213Z,935.78
2024-03-26T11:28:39.219Z,935.79
2024-03-26T11:29:39.196Z,935.82
2024-03-26T11:30:39.184Z,935.71
2024-03-26T11:31:39.185Z,935.72
2024-03-26T11:32:39.158Z,935.69
2024-03-26T11:33:39.170Z,935.72
2024-03-26T11:34:39.155Z,935.75
2024-03-26T11:35:39.133Z,935.65
2024-03-26T11:36:39.128Z,935.73
2024-03-26T11:37:39.122Z,935.68
2024-03-26T11:38:42.104Z,935.69
2024-03-26T11:39:39.095Z,935.68
2024-03-26T11:40:39.080Z,935.64
2024-03-26T11:41:39.076Z,935.60
2024-03-26T11:42:39.074Z,935.58
2024-03-26T11:43:39.051Z,935.53
2024-03-26T11:44:39.035Z,935.54
2024-03-26T11:45:39.029Z,935.52
2024-03-26T11:47:39.009Z,935.40
2024-03-26T11:48:39.168Z,935.38
2024-03-26T11:49:38.995Z,935.39
2024-03-26T11:50:38.971Z,935.34
2024-03-26T11:52:38.950Z,935.28
2024-03-26T11:53:42.130Z,935.31
2024-03-26T11:55:38.924Z,935.24
2024-03-26T11:56:38.920Z,935.18
2024-03-26T11:57:41.361Z,935.16
2024-03-26T11:58:38.888Z,935.15
2024-03-26T11:59:38.870Z,935.14
2024-03-26T12:00:38.975Z,935.10
2024-03-26T12:02:38.843Z,935.09
2024-03-26T12:03:38.840Z,935.10
2024-03-26T12:04:38.868Z,935.03
2024-03-26T12:05:38.808Z,935.01
2024-03-26T12:06:38.794Z,935.02
2024-03-26T12:07:38.801Z,934.97
2024-03-26T12:08:41.787Z,935.00
2024-03-26T12:10:38.758Z,934.99
2024-03-26T12:11:38.759Z,934.96
2024-03-26T12:12:38.733Z,934.96
2024-03-26T12:13:38.736Z,934.95
2024-03-26T12:14:38.712Z,934.93
2024-03-26T12:15:38.717Z,934.93
2024-03-26T12:17:38.681Z,934.86
2024-03-26T12:18:38.688Z,934.81
2024-03-26T12:19:38.669Z,934.80
2024-03-26T12:20:38.685Z,934.82
2024-03-26T12:21:38.641Z,934.72
2024-03-26T12:22:38.629Z,934.69
2024-03-26T12:25:38.604Z,934.75
2024-03-26T12:26:38.607Z,934.75
2024-03-26T12:27:38.576Z,934.73
2024-03-26T12:28:38.568Z,934.72
2024-03-26T12:29:38.557Z,934.66
2024-03-26T12:30:38.548Z,934.65
2024-03-26T12:32:38.522Z,934.59
2024-03-26T12:33:38.515Z,934.62
2024-03-26T12:35:38.510Z,934.52
2024-03-26T12:36:38.477Z,934.51
2024-03-26T12:37:38.491Z,934.52
2024-03-26T12:38:41.453Z,934.50
2024-03-26T12:39:38.456Z,934.47
2024-03-26T12:40:38.436Z,934.47
2024-03-26T12:42:38.414Z,934.42
2024-03-26T12:43:38.417Z,934.43
2024-03-26T12:44:38.399Z,934.41
2024-03-26T12:45:38.385Z,934.41
2024-03-26T12:46:38.374Z,934.42
2024-03-26T12:47:38.362Z,934.43
2024-03-26T12:48:38.454Z,934.36
2024-03-26T12:50:38.336Z,934.33
2024-03-26T12:51:38.316Z,934.31
2024-03-26T12:52:38.320Z,934.31
2024-03-26T12:53:41.491Z,934.34
2024-03-26T12:54:38.296Z,934.28
2024-03-26T12:55:38.291Z,934.28
2024-03-26T12:56:38.272Z,934.28
2024-03-26T12:58:38.251Z,934.22
2024-03-26T12:59:38.242Z,934.15
2024-03-26T13:00:38.232Z,934.11
2024-03-26T13:01:38.233Z,934.13
2024-03-26T13:02:38.205Z,934.13
2024-03-26T13:03:38.256Z,934.18
2024-03-26T13:04:38.200Z,934.16
2024-03-26T13:05:38.182Z,934.15
2024-03-26T13:06:38.166Z,934.12
2024-03-26T13:07:38.150Z,934.14
2024-03-26T13:08:41.147Z,934.11
2024-03-26T13:09:38.141Z,934.12
2024-03-26T13:10:38.119Z,934.13
2024-03-26T13:11:38.294Z,934.09
2024-03-26T13:13:38.088Z,934.12
2024-03-26T13:14:38.106Z,934.15
2024-03-26T13:15:38.117Z,934.13
2024-03-26T13:16:38.058Z,934.11
2024-03-26T13:17:38.056Z,933.99
2024-03-26T13:18:38.122Z,934.03
2024-03-26T13:19:38.027Z,934.00
2024-03-26T13:21:38.002Z,933.99
2024-03-26T13:22:38.955Z,934.01
2024-03-26T13:23:40.986Z,933.95
2024-03-26T13:24:39.657Z,933.90
2024-03-26T13:25:39.341Z,933.92
2024-03-26T13:26:37.954Z,933.87
2024-03-26T13:27:37.958Z,933.82
2024-03-26T13:28:37.927Z,933.82
2024-03-26T13:29:37.941Z,933.84
2024-03-26T13:31:37.904Z,933.87
2024-03-26T13:33:37.887Z,933.82
2024-03-26T13:34:37.887Z,933.85
2024-03-26T13:35:37.871Z,933.84
2024-03-26T13:36:37.853Z,933.83
2024-03-26T13:37:37.854Z,933.83
2024-03-26T13:38:43.104Z,933.83
2024-03-26T13:39:37.831Z,933.84
2024-03-26T13:41:38.804Z,933.78
2024-03-26T13:43:37.792Z,933.76
2024-03-26T13:44:37.760Z,933.73
2024-03-26T13:45:37.760Z,933.73
2024-03-26T13:46:37.763Z,933.74
2024-03-26T13:47:37.731Z,933.77
2024-03-26T13:48:37.717Z,933.71
2024-03-26T13:49:37.719Z,933.70
2024-03-26T13:51:37.703Z,933.66
2024-03-26T13:53:40.694Z,933.62
2024-03-26T13:54:37.732Z,933.58
2024-03-26T13:55:37.674Z,933.54
2024-03-26T13:56:40.143Z,933.51
2024-03-26T13:57:37.617Z,933.53
2024-03-26T13:58:37.613Z,933.50
2024-03-26T13:59:37.593Z,933.51
2024-03-26T14:00:37.778Z,933.53
2024-03-26T14:01:37.578Z,933.49
2024-03-26T14:02:37.564Z,933.51
2024-03-26T14:03:37.566Z,933.48
2024-03-26T14:04:37.545Z,933.48
2024-03-26T14:05:38.499Z,933.45
2024-03-26T14:06:37.519Z,933.46
2024-03-26T14:07:37.509Z,933.42
2024-03-26T14:08:40.513Z,933.39
2024-03-26T14:09:37.498Z,933.45
2024-03-26T14:11:38.076Z,933.44
2024-03-26T14:12:38.409Z,933.42
2024-03-26T14:14:37.428Z,933.39
2024-03-26T14:15:37.432Z,933.38
2024-03-26T14:16:37.412Z,933.35
2024-03-26T14:17:37.400Z,933.34
2024-03-26T14:19:37.395Z,933.27
2024-03-26T14:20:37.380Z,933.25
2024-03-26T14:21:37.356Z,933.21
2024-03-26T14:22:37.364Z,933.16
2024-03-26T14:23:40.337Z,933.24
2024-03-26T14:24:37.330Z,933.16
2024-03-26T14:25:37.315Z,933.17
2024-03-26T14:26:37.305Z,933.19
2024-03-26T14:27:37.302Z,933.17
2024-03-26T14:28:37.282Z,933.17
2024-03-26T14:29:37.285Z,933.14
2024-03-26T14:30:37.284Z,933.10
2024-03-26T14:31:37.260Z,933.12
2024-03-26T14:32:37.248Z,933.07
2024-03-26T14:33:37.249Z,933.09
2024-03-26T14:34:37.252Z,933.07
2024-03-26T14:35:37.218Z,933.01
2024-03-26T14:36:37.193Z,932.97
2024-03-26T14:37:37.225Z,933.02
2024-03-26T14:40:37.159Z,932.93
2024-03-26T14:42:37.140Z,932.90
2024-03-26T14:43:37.138Z,932.90
2024-03-26T14:44:37.111Z,932.94
2024-03-26T14:45:37.099Z,932.93
2024-03-26T14:46:37.122Z,932.91
2024-03-26T14:47:37.086Z,932.88
2024-03-26T14:48:37.064Z,932.83
2024-03-26T14:49:37.099Z,932.80
2024-03-26T14:50:37.056Z,932.81
2024-03-26T14:51:37.986Z,932.86
2024-03-26T14:52:37.032Z,932.86
2024-03-26T14:53:40.077Z,932.84
2024-03-26T14:54:37.035Z,932.81
2024-03-26T14:55:37.643Z,932.80
2024-03-26T14:56:36.997Z,932.74
2024-03-26T14:57:36.999Z,932.74
2024-03-26T14:58:36.962Z,932.74
2024-03-26T14:59:36.969Z,932.69
2024-03-26T15:00:36.978Z,932.67
2024-03-26T15:02:36.923Z,932.60
2024-03-26T15:03:37.889Z,932.61
2024-03-26T15:05:36.903Z,932.52
2024-03-26T15:06:36.893Z,932.52
2024-03-26T15:07:36.893Z,932.51
2024-03-26T15:08:39.859Z,932.51
2024-03-26T15:09:36.860Z,932.50
2024-03-26T15:10:36.828Z,932.50
2024-03-26T15:11:37.024Z,932.48
2024-03-26T15:12:36.825Z,932.49
2024-03-26T15:13:36.804Z,932.44
2024-03-26T15:15:36.824Z,932.47
2024-03-26T15:16:36.774Z,932.45
2024-03-26T15:17:36.771Z,932.41
2024-03-26T15:18:36.756Z,932.44
2024-03-26T15:19:36.836Z,932.44
2024-03-26T15:20:36.760Z,932.48
2024-03-26T15:21:36.729Z,932.52
2024-03-26T15:22:36.761Z,932.51
2024-03-26T15:23:40.659Z,932.49
2024-03-26T15:24:36.715Z,932.45
2024-03-26T15:25:36.670Z,932.46
2024-03-26T15:26:36.666Z,932.42
2024-03-26T15:27:36.657Z,932.44
2024-03-26T15:28:36.990Z,932.42
2024-03-26T15:29:36.648Z,932.42
2024-03-26T15:30:36.640Z,932.44
2024-03-26T15:31:36.652Z,932.48
2024-03-26T15:32:50.657Z,932.48
2024-03-26T15:33:36.594Z,932.45
2024-03-26T15:34:37.544Z,932.40
2024-03-26T15:35:36.573Z,932.41
2024-03-26T15:36:36.557Z,932.41
2024-03-26T15:37:36.551Z,932.35
2024-03-26T15:38:39.567Z,932.47
2024-03-26T15:39:36.544Z,932.45
2024-03-26T15:40:36.522Z,932.45
2024-03-26T15:41:36.504Z,932.43
2024-03-26T15:42:36.498Z,932.43
2024-03-26T15:43:36.477Z,932.38
2024-03-26T15:44:36.483Z,932.39
2024-03-26T15:45:36.460Z,932.40
2024-03-26T15:46:44.629Z,932.37
2024-03-26T15:47:37.441Z,932.37
2024-03-26T15:48:36.434Z,932.36
2024-03-26T15:49:36.450Z,932.34
2024-03-26T15:50:36.412Z,932.34
2024-03-26T15:52:37.310Z,932.39
2024-03-26T15:53:39.447Z,932.40
2024-03-26T15:54:36.370Z,932.42
2024-03-26T15:55:36.362Z,932.37
2024-03-26T15:56:36.350Z,932.31
2024-03-26T15:57:36.341Z,932.30
2024-03-26T15:58:36.351Z,932.30
2024-03-26T15:59:36.335Z,932.30
2024-03-26T16:00:36.348Z,932.28
2024-03-26T16:01:36.290Z,932.25
2024-03-26T16:02:36.280Z,932.25
2024-03-26T16:03:36.301Z,932.25
2024-03-26T16:04:36.268Z,932.21
2024-03-26T16:05:36.247Z,932.17
2024-03-26T16:06:36.239Z,932.15
2024-03-26T16:07:36.239Z,932.09
2024-03-26T16:08:39.230Z,932.06
2024-03-26T16:10:52.992Z,932.01
2024-03-26T16:11:37.186Z,932.05
2024-03-26T16:13:36.161Z,931.96
2024-03-26T16:14:36.152Z,932.01
2024-03-26T16:16:36.124Z,932.02
2024-03-26T16:17:36.116Z,931.93
2024-03-26T16:18:36.106Z,931.94
2024-03-26T16:19:36.364Z,931.90
2024-03-26T16:20:36.095Z,931.90
2024-03-26T16:21:36.081Z,931.92
2024-03-26T16:22:36.060Z,931.96
2024-03-26T16:23:39.048Z,931.95
2024-03-26T16:24:36.054Z,931.97
2024-03-26T16:26:36.022Z,931.96
2024-03-26T16:28:36.003Z,931.92
2024-03-26T16:29:36.004Z,931.94
2024-03-26T16:30:36.001Z,931.91
2024-03-26T16:31:35.980Z,931.96
2024-03-26T16:32:35.976Z,931.98
2024-03-26T16:33:35.936Z,931.97
2024-03-26T16:34:35.948Z,931.95
2024-03-26T16:36:35.920Z,931.94
2024-03-26T16:37:35.899Z,931.90
2024-03-26T16:38:38.883Z,931.91
2024-03-26T16:39:35.903Z,931.86
2024-03-26T16:41:39.322Z,931.86
2024-03-26T16:42:35.849Z,931.90
2024-03-26T16:43:36.428Z,931.87
2024-03-26T16:44:36.851Z,931.91
2024-03-26T16:45:35.813Z,931.90
2024-03-26T16:46:36.980Z,931.89
2024-03-26T16:48:35.784Z,931.83
2024-03-26T16:49:35.774Z,931.86
2024-03-26T16:51:35.757Z,931.84
2024-03-26T16:52:35.906Z,931.88
2024-03-26T16:53:38.774Z,931.90
2024-03-26T16:54:35.722Z,931.85
2024-03-26T16:56:35.695Z,931.82
2024-03-26T16:57:35.692Z,931.85
2024-03-26T16:58:35.686Z,931.87
2024-03-26T16:59:35.675Z,931.84
2024-03-26T17:01:35.652Z,931.92
2024-03-26T17:02:35.637Z,931.89
2024-03-26T17:03:35.652Z,931.89
2024-03-26T17:04:35.612Z,931.88
2024-03-26T17:05:35.624Z,931.90
2024-03-26T17:06:35.604Z,931.91
2024-03-26T17:07:35.578Z,931.90
2024-03-26T17:08:38.601Z,931.92
2024-03-26T17:09:35.569Z,931.90
2024-03-26T17:11:38.290Z,931.99
2024-03-26T17:13:35.518Z,931.98
2024-03-26T17:14:35.506Z,931.98
2024-03-26T17:16:54.968Z,931.99
2024-03-26T17:17:36.489Z,932.00
2024-03-26T17:18:35.475Z,931.98
2024-03-26T17:19:37.365Z,931.97
2024-03-26T17:20:35.447Z,931.99
2024-03-26T17:21:35.431Z,931.99
2024-03-26T17:22:35.430Z,931.96
2024-03-26T17:23:38.402Z,931.99
2024-03-26T17:24:35.403Z,931.93
2024-03-26T17:26:35.394Z,931.95
2024-03-26T17:28:35.353Z,932.04
2024-03-26T17:29:35.343Z,932.03
2024-03-26T17:30:35.370Z,932.04
2024-03-26T17:31:35.325Z,932.06
2024-03-26T17:32:35.320Z,932.03
2024-03-26T17:33:35.306Z,932.04
2024-03-26T17:34:35.289Z,932.01
2024-03-26T17:35:35.289Z,932.10
2024-03-26T17:36:35.282Z,932.05
2024-03-26T17:37:35.264Z,932.08
2024-03-26T17:38:38.248Z,932.05
2024-03-26T17:39:35.261Z,932.09
2024-03-26T17:41:35.223Z,932.10
2024-03-26T17:42:35.215Z,932.04
2024-03-26T17:44:35.227Z,932.04
2024-03-26T17:45:35.219Z,931.99
2024-03-26T17:46:35.213Z,931.98
2024-03-26T17:47:35.155Z,931.98
2024-03-26T17:49:35.140Z,932.00
2024-03-26T17:51:35.122Z,932.02
2024-03-26T17:52:35.099Z,932.04
2024-03-26T17:53:38.098Z,932.09
2024-03-26T17:54:35.080Z,932.02
2024-03-26T17:55:35.066Z,932.06
2024-03-26T17:57:35.242Z,932.09
2024-03-26T17:58:35.036Z,932.07
2024-03-26T17:59:35.030Z,932.03
2024-03-26T18:00:35.031Z,932.03
2024-03-26T18:02:35.009Z,931.99
2024-03-26T18:04:34.986Z,931.96
2024-03-26T18:05:34.969Z,932.00
2024-03-26T18:06:34.951Z,931.99
2024-03-26T18:07:34.946Z,932.00
2024-03-26T18:08:37.961Z,932.01
2024-03-26T18:09:34.924Z,932.01
2024-03-26T18:10:34.926Z,931.99
2024-03-26T18:12:34.887Z,932.01
2024-03-26T18:13:34.889Z,932.03
2024-03-26T18:14:34.923Z,932.01
2024-03-26T18:15:34.865Z,932.00
2024-03-26T18:16:34.845Z,932.02
2024-03-26T18:17:34.905Z,932.03
2024-03-26T18:18:34.899Z,932.01
2024-03-26T18:19:34.946Z,932.09
2024-03-26T18:20:34.854Z,932.08
2024-03-26T18:21:34.854Z,932.08
2024-03-26T18:22:34.848Z,932.10
2024-03-26T18:23:37.821Z,932.06
2024-03-26T18:24:34.817Z,932.08
2024-03-26T18:25:34.809Z,932.07
2024-03-26T18:26:34.795Z,932.07
2024-03-26T18:27:34.780Z,932.11
2024-03-26T18:28:34.790Z,932.08
2024-03-26T18:29:34.753Z,932.08
2024-03-26T18:30:34.767Z,932.11
2024-03-26T18:31:34.746Z,932.05
2024-03-26T18:32:34.741Z,932.09
2024-03-26T18:33:34.719Z,932.06
2024-03-26T18:34:34.705Z,932.12
2024-03-26T18:35:34.736Z,932.12
2024-03-26T18:36:34.690Z,932.14
2024-03-26T18:37:34.679Z,932.06
2024-03-26T18:38:37.662Z,932.08
2024-03-26T18:39:34.663Z,932.13
2024-03-26T18:40:34.647Z,932.07
2024-03-26T18:42:34.661Z,932.09
2024-03-26T18:43:34.634Z,932.09
2024-03-26T18:45:34.600Z,932.04
2024-03-26T18:46:34.583Z,932.01
2024-03-26T18:47:34.612Z,932.06
2024-03-26T18:48:34.759Z,932.01
2024-03-26T18:49:34.551Z,931.99
2024-03-26T18:50:34.536Z,931.98
2024-03-26T18:51:34.528Z,932.00
2024-03-26T18:52:34.518Z,932.04
2024-03-26T18:53:37.770Z,932.04
2024-03-26T18:55:34.493Z,932.07
2024-03-26T18:56:34.472Z,932.10
2024-03-26T18:57:34.470Z,932.12
2024-03-26T18:58:34.457Z,932.10
2024-03-26T18:59:34.440Z,932.09
2024-03-26T19:00:34.440Z,932.06
2024-03-26T19:01:34.421Z,932.08
2024-03-26T19:02:34.416Z,932.08
2024-03-26T19:03:34.410Z,932.07
2024-03-26T19:04:34.431Z,932.05
2024-03-26T19:05:34.379Z,932.07
2024-03-26T19:06:34.371Z,932.04
2024-03-26T19:07:34.379Z,932.11
2024-03-26T19:08:37.348Z,932.07
2024-03-26T19:09:34.339Z,932.08
2024-03-26T19:10:34.329Z,932.17
2024-03-26T19:11:34.321Z,932.18
2024-03-26T19:12:34.303Z,932.19
2024-03-26T19:13:34.302Z,932.22
2024-03-26T19:14:34.278Z,932.20
2024-03-26T19:15:34.435Z,932.23
2024-03-26T19:16:34.269Z,932.19
2024-03-26T19:17:34.253Z,932.20
2024-03-26T19:18:34.246Z,932.17
2024-03-26T19:19:34.232Z,932.19
2024-03-26T19:20:34.214Z,932.18
2024-03-26T19:21:34.208Z,932.19
2024-03-26T19:23:37.199Z,932.17
2024-03-26T19:24:34.180Z,932.21
2024-03-26T19:25:34.171Z,932.17
2024-03-26T19:26:34.195Z,932.23
2024-03-26T19:27:34.152Z,932.24
2024-03-26T19:28:34.139Z,932.23
2024-03-26T19:29:34.119Z,932.26
2024-03-26T19:30:34.134Z,932.29
2024-03-26T19:31:34.102Z,932.27
2024-03-26T19:32:34.092Z,932.28
2024-03-26T19:33:34.098Z,932.30
2024-03-26T19:34:34.080Z,932.35
2024-03-26T19:35:34.060Z,932.35
2024-03-26T19:36:34.055Z,932.27
2024-03-26T19:37:34.212Z,932.29
2024-03-26T19:38:37.032Z,932.32
2024-03-26T19:39:34.022Z,932.35
2024-03-26T19:40:34.007Z,932.31
2024-03-26T19:41:34.002Z,932.31
2024-03-26T19:42:33.992Z,932.31
2024-03-26T19:43:33.975Z,932.36
2024-03-26T19:44:33.963Z,932.36
2024-03-26T19:45:33.966Z,932.41
2024-03-26T19:46:33.948Z,932.39
2024-03-26T19:47:33.944Z,932.38
2024-03-26T19:48:33.960Z,932.40
2024-03-26T19:49:33.916Z,932.43
2024-03-26T19:50:33.902Z,932.41
2024-03-26T19:51:33.889Z,932.42
2024-03-26T19:52:33.906Z,932.43
2024-03-26T19:53:36.983Z,932.40
2024-03-26T19:54:33.876Z,932.41
2024-03-26T19:55:33.861Z,932.48
2024-03-26T19:56:33.836Z,932.44
2024-03-26T19:57:33.839Z,932.45
2024-03-26T19:58:33.818Z,932.48
2024-03-26T19:59:33.821Z,932.49
2024-03-26T20:01:33.801Z,932.50
2024-03-26T20:02:33.775Z,932.56
2024-03-26T20:03:33.763Z,932.57
2024-03-26T20:04:33.781Z,932.57
2024-03-26T20:05:33.746Z,932.59
2024-03-26T20:06:33.739Z,932.61
2024-03-26T20:07:33.730Z,932.61
2024-03-26T20:08:36.721Z,932.61
2024-03-26T20:09:33.700Z,932.61
2024-03-26T20:10:33.690Z,932.67
2024-03-26T20:11:33.680Z,932.73
2024-03-26T20:12:33.853Z,932.79
2024-03-26T20:13:33.652Z,932.79
2024-03-26T20:14:33.652Z,932.83
2024-03-26T20:15:33.637Z,932.77
2024-03-26T20:16:33.622Z,932.82
2024-03-26T20:17:33.638Z,932.84
2024-03-26T20:18:33.610Z,932.85
2024-03-26T20:19:33.605Z,932.86
2024-03-26T20:20:33.588Z,932.84
2024-03-26T20:21:33.598Z,932.87
2024-03-26T20:22:35.808Z,932.95
2024-03-26T20:23:36.563Z,932.93
2024-03-26T20:24:33.550Z,932.96
2024-03-26T20:26:33.533Z,932.94
2024-03-26T20:27:33.523Z,933.00
2024-03-26T20:28:33.535Z,933.01
2024-03-26T20:29:35.449Z,933.04
2024-03-26T20:30:33.480Z,932.98
2024-03-26T20:31:37.957Z,932.99
2024-03-26T20:32:33.461Z,932.97
2024-03-26T20:33:33.454Z,933.01
2024-03-26T20:34:33.435Z,933.08
2024-03-26T20:35:33.426Z,933.00
2024-03-26T20:36:33.413Z,933.04
2024-03-26T20:37:33.401Z,933.03
2024-03-26T20:38:36.393Z,932.96
2024-03-26T20:39:33.453Z,933.01
2024-03-26T20:41:33.361Z,932.96
2024-03-26T20:42:33.355Z,933.06
2024-03-26T20:44:33.383Z,933.03
2024-03-26T20:45:33.323Z,933.02
2024-03-26T20:46:33.303Z,933.01
2024-03-26T20:47:33.312Z,933.02
2024-03-26T20:49:33.271Z,933.00
2024-03-26T20:50:33.266Z,932.99
2024-03-26T20:51:33.263Z,933.00
2024-03-26T20:52:33.254Z,933.02
2024-03-26T20:53:36.317Z,932.99
2024-03-26T20:54:33.224Z,932.98
2024-03-26T20:55:35.610Z,933.01
2024-03-26T20:56:33.205Z,932.98
2024-03-26T20:57:33.199Z,932.96
2024-03-26T20:58:33.202Z,932.99
2024-03-26T20:59:33.172Z,933.01
2024-03-26T21:00:33.165Z,932.97
2024-03-26T21:01:33.156Z,933.03
2024-03-26T21:02:33.148Z,933.03
2024-03-26T21:03:33.137Z,933.04
2024-03-26T21:04:33.159Z,933.02
2024-03-26T21:05:33.111Z,933.01
2024-03-26T21:06:33.159Z,933.01
2024-03-26T21:07:33.086Z,933.03
2024-03-26T21:08:36.104Z,933.03
2024-03-26T21:09:33.081Z,933.02
2024-03-26T21:10:33.077Z,933.00
2024-03-26T21:11:33.049Z,933.02
2024-03-26T21:12:33.034Z,932.97
2024-03-26T21:14:33.017Z,932.99
2024-03-26T21:15:33.059Z,932.90
2024-03-26T21:17:33.000Z,932.92
2024-03-26T21:18:33.040Z,932.94
2024-03-26T21:19:32.982Z,932.86
2024-03-26T21:20:32.964Z,932.87
2024-03-26T21:21:32.967Z,932.86
2024-03-26T21:23:35.932Z,932.81
2024-03-26T21:25:32.890Z,932.83
2024-03-26T21:26:32.881Z,932.82
2024-03-26T21:27:32.886Z,932.77
2024-03-26T21:28:32.861Z,932.81
2024-03-26T21:30:32.848Z,932.76
2024-03-26T21:32:35.396Z,932.72
2024-03-26T21:33:32.830Z,932.69
2024-03-26T21:34:32.830Z,932.76
2024-03-26T21:35:32.787Z,932.73
2024-03-26T21:36:32.780Z,932.73
2024-03-26T21:37:32.767Z,932.64
2024-03-26T21:38:35.758Z,932.68
2024-03-26T21:39:32.764Z,932.68
2024-03-26T21:40:32.733Z,932.68
2024-03-26T21:41:32.725Z,932.66
2024-03-26T21:42:32.713Z,932.68
2024-03-26T21:43:32.702Z,932.67
2024-03-26T21:44:32.698Z,932.65
2024-03-26T21:45:32.717Z,932.65
2024-03-26T21:46:32.674Z,932.63
2024-03-26T21:47:32.698Z,932.65
2024-03-26T21:48:32.645Z,932.64
2024-03-26T21:49:32.635Z,932.64
2024-03-26T21:50:32.627Z,932.64
2024-03-26T21:51:32.622Z,932.60
2024-03-26T21:52:32.612Z,932.62
2024-03-26T21:53:35.620Z,932.65
2024-03-26T21:54:32.600Z,932.68
2024-03-26T21:55:32.574Z,932.69
2024-03-26T21:56:32.588Z,932.67
2024-03-26T21:58:32.810Z,932.69
2024-03-26T22:00:32.518Z,932.66
2024-03-26T22:01:32.511Z,932.70
2024-03-26T22:03:32.521Z,932.73